sensor_id;sensor_type;location;lat;lon;timestamp;pressure;altitude;pressure_sealevel;temperature;humidity
5988;BME280;3021;51.000;6.980;2023-07-29T00:01:47;68565.31;;;20.25;100.00
5988;BME280;3021;51.000;6.980;2023-07-29T00:04:14;68566.63;;;20.28;100.00
5988;BME280;3021;51.000;6.980;2023-07-29T00:06:39;68567.78;;;20.29;100.00
5988;BME280;3021;51.000;6.980;2023-07-29T00:09:05;68565.44;;;20.27;100.00
5988;BME280;3021;51.000;6.980;2023-07-29T00:11:30;68551.59;;;20.17;100.00
5988;BME280;3021;51.000;6.980;2023-07-29T00:13:57;68541.00;;;20.06;100.00
5988;BME280;3021;51.000;6.980;2023-07-29T00:16:23;68522.94;;;19.90;100.00
5988;BME280;3021;51.000;6.980;2023-07-29T00:18:49;68510.00;;;19.76;100.00
5988;BME280;3021;51.000;6.980;2023-07-29T00:21:14;68490.78;;;19.59;100.00
5988;BME280;3021;51.000;6.980;2023-07-29T00:23:40;68479.28;;;19.51;100.00
5988;BME280;3021;51.000;6.980;2023-07-29T00:26:05;68474.03;;;19.46;100.00
5988;BME280;3021;51.000;6.980;2023-07-29T00:28:30;68472.75;;;19.43;100.00
5988;BME280;3021;51.000;6.980;2023-07-29T00:30:56;68464.72;;;19.38;100.00
5988;BME280;3021;51.000;6.980;2023-07-29T00:33:21;68468.22;;;19.41;100.00
5988;BME280;3021;51.000;6.980;2023-07-29T00:35:47;68462.38;;;19.36;100.00
5988;BME280;3021;51.000;6.980;2023-07-29T00:38:12;68452.63;;;19.30;100.00
5988;BME280;3021;51.000;6.980;2023-07-29T00:40:37;68461.81;;;19.36;100.00
5988;BME280;3021;51.000;6.980;2023-07-29T00:43:03;68463.41;;;19.34;100.00
5988;BME280;3021;51.000;6.980;2023-07-29T00:45:29;68469.97;;;19.43;100.00
5988;BME280;3021;51.000;6.980;2023-07-29T00:47:55;68465.31;;;19.39;100.00
5988;BME280;3021;51.000;6.980;2023-07-29T00:50:21;68457.75;;;19.32;100.00
5988;BME280;3021;51.000;6.980;2023-07-29T00:52:46;68454.25;;;19.29;100.00
5988;BME280;3021;51.000;6.980;2023-07-29T00:55:12;68449.16;;;19.27;100.00
5988;BME280;3021;51.000;6.980;2023-07-29T00:57:37;68443.78;;;19.20;100.00
5988;BME280;3021;51.000;6.980;2023-07-29T01:00:03;68440.72;;;19.14;100.00
5988;BME280;3021;51.000;6.980;2023-07-29T01:02:30;68447.84;;;19.23;100.00
5988;BME280;3021;51.000;6.980;2023-07-29T01:04:58;68445.53;;;19.21;100.00
5988;BME280;3021;51.000;6.980;2023-07-29T01:07:30;68450.03;;;19.23;100.00
5988;BME280;3021;51.000;6.980;2023-07-29T01:12:47;68450.63;;;19.23;100.00
5988;BME280;3021;51.000;6.980;2023-07-29T01:15:27;68454.25;;;19.29;100.00
5988;BME280;3021;51.000;6.980;2023-07-29T01:18:03;68446.69;;;19.22;100.00
5988;BME280;3021;51.000;6.980;2023-07-29T01:20:32;68442.03;;;19.18;100.00
5988;BME280;3021;51.000;6.980;2023-07-29T01:22:58;68440.28;;;19.16;100.00
5988;BME280;3021;51.000;6.980;2023-07-29T01:25:23;68438.41;;;19.12;100.00
5988;BME280;3021;51.000;6.980;2023-07-29T01:27:49;68438.41;;;19.12;100.00
5988;BME280;3021;51.000;6.980;2023-07-29T01:30:17;68444.81;;;19.18;100.00
5988;BME280;3021;51.000;6.980;2023-07-29T01:32:48;68447.25;;;19.23;100.00
5988;BME280;3021;51.000;6.980;2023-07-29T01:35:23;68449.59;;;19.25;100.00
5988;BME280;3021;51.000;6.980;2023-07-29T01:37:54;68457.03;;;19.29;100.00
5988;BME280;3021;51.000;6.980;2023-07-29T01:40:22;68452.50;;;19.27;100.00
5988;BME280;3021;51.000;6.980;2023-07-29T01:42:48;68461.81;;;19.36;100.00
5988;BME280;3021;51.000;6.980;2023-07-29T01:45:14;68463.41;;;19.34;100.00
5988;BME280;3021;51.000;6.980;2023-07-29T01:47:39;68462.38;;;19.36;100.00
5988;BME280;3021;51.000;6.980;2023-07-29T01:50:07;68461.25;;;19.35;100.00
5988;BME280;3021;51.000;6.980;2023-07-29T01:52:32;68463.41;;;19.34;100.00
5988;BME280;3021;51.000;6.980;2023-07-29T01:54:58;68460.66;;;19.34;100.00
5988;BME280;3021;51.000;6.980;2023-07-29T01:57:23;68465.91;;;19.39;100.00
5988;BME280;3021;51.000;6.980;2023-07-29T01:59:48;68462.28;;;19.33;100.00
5988;BME280;3021;51.000;6.980;2023-07-29T02:02:14;68462.72;;;19.31;100.00
5988;BME280;3021;51.000;6.980;2023-07-29T02:04:39;68457.16;;;19.31;100.00
5988;BME280;3021;51.000;6.980;2023-07-29T02:07:04;68459.38;;;19.31;100.00
5988;BME280;3021;51.000;6.980;2023-07-29T02:09:30;68458.19;;;19.30;100.00
5988;BME280;3021;51.000;6.980;2023-07-29T02:11:56;68456.56;;;19.31;100.00
5988;BME280;3021;51.000;6.980;2023-07-29T02:14:22;68453.66;;;19.28;100.00
5988;BME280;3021;51.000;6.980;2023-07-29T02:16:47;68454.84;;;19.29;100.00
5988;BME280;3021;51.000;6.980;2023-07-29T02:19:13;68459.50;;;19.33;100.00
5988;BME280;3021;51.000;6.980;2023-07-29T02:21:38;68457.75;;;19.32;100.00
5988;BME280;3021;51.000;6.980;2023-07-29T02:24:04;68464.59;;;19.36;100.00
5988;BME280;3021;51.000;6.980;2023-07-29T02:26:29;68458.75;;;19.30;100.00
5988;BME280;3021;51.000;6.980;2023-07-29T02:28:54;68453.66;;;19.28;100.00
5988;BME280;3021;51.000;6.980;2023-07-29T02:31:24;68457.63;;;19.29;100.00
5988;BME280;3021;51.000;6.980;2023-07-29T02:33:50;68453.66;;;19.28;100.00
5988;BME280;3021;51.000;6.980;2023-07-29T02:36:16;68457.16;;;19.31;100.00
5988;BME280;3021;51.000;6.980;2023-07-29T02:38:42;68450.88;;;19.28;100.00
5988;BME280;3021;51.000;6.980;2023-07-29T02:41:09;68453.09;;;19.28;100.00
5988;BME280;3021;51.000;6.980;2023-07-29T02:43:35;68449.59;;;19.25;100.00
5988;BME280;3021;51.000;6.980;2023-07-29T02:46:02;68457.03;;;19.29;100.00
5988;BME280;3021;51.000;6.980;2023-07-29T02:48:28;68453.09;;;19.28;100.00
5988;BME280;3021;51.000;6.980;2023-07-29T02:50:54;68458.75;;;19.30;100.00
5988;BME280;3021;51.000;6.980;2023-07-29T02:53:19;68457.16;;;19.31;100.00
5988;BME280;3021;51.000;6.980;2023-07-29T02:55:45;68461.69;;;19.33;100.00
5988;BME280;3021;51.000;6.980;2023-07-29T02:58:10;68456.56;;;19.31;100.00
5988;BME280;3021;51.000;6.980;2023-07-29T03:00:35;68461.09;;;19.32;100.00
5988;BME280;3021;51.000;6.980;2023-07-29T03:03:01;68464.59;;;19.36;100.00
5988;BME280;3021;51.000;6.980;2023-07-29T03:05:29;68464.72;;;19.38;100.00
5988;BME280;3021;51.000;6.980;2023-07-29T03:07:55;68462.38;;;19.36;100.00
5988;BME280;3021;51.000;6.980;2023-07-29T03:10:20;68466.34;;;19.37;100.00
5988;BME280;3021;51.000;6.980;2023-07-29T03:12:46;68462.97;;;19.37;100.00
5988;BME280;3021;51.000;6.980;2023-07-29T03:15:11;68462.53;;;19.39;100.00
5988;BME280;3021;51.000;6.980;2023-07-29T03:17:37;68470.88;;;19.39;100.00
5988;BME280;3021;51.000;6.980;2023-07-29T03:20:03;68465.75;;;19.37;100.00
5988;BME280;3021;51.000;6.980;2023-07-29T03:22:28;68458.75;;;19.30;100.00
5988;BME280;3021;51.000;6.980;2023-07-29T03:24:53;68450.88;;;19.28;100.00
5988;BME280;3021;51.000;6.980;2023-07-29T03:27:18;68452.97;;;19.25;100.00
5988;BME280;3021;51.000;6.980;2023-07-29T03:29:44;68447.25;;;19.23;100.00
5988;BME280;3021;51.000;6.980;2023-07-29T03:32:09;68447.25;;;19.23;100.00
5988;BME280;3021;51.000;6.980;2023-07-29T03:34:34;68447.84;;;19.23;100.00
5988;BME280;3021;51.000;6.980;2023-07-29T03:37:00;68446.69;;;19.22;100.00
5988;BME280;3021;51.000;6.980;2023-07-29T03:39:26;68445.97;;;19.19;100.00
5988;BME280;3021;51.000;6.980;2023-07-29T03:41:52;68443.50;;;19.14;100.00
5988;BME280;3021;51.000;6.980;2023-07-29T03:44:17;68433.28;;;19.10;100.00
5988;BME280;3021;51.000;6.980;2023-07-29T03:46:43;68431.56;;;19.09;100.00
5988;BME280;3021;51.000;6.980;2023-07-29T03:49:09;68433.75;;;19.08;100.00
5988;BME280;3021;51.000;6.980;2023-07-29T03:51:34;68431.56;;;19.09;100.00
5988;BME280;3021;51.000;6.980;2023-07-29T03:53:59;68433.19;;;19.08;100.00
5988;BME280;3021;51.000;6.980;2023-07-29T03:56:25;68433.75;;;19.08;100.00
5988;BME280;3021;51.000;6.980;2023-07-29T03:58:52;68428.66;;;19.06;100.00
5988;BME280;3021;51.000;6.980;2023-07-29T04:01:18;68436.06;;;19.10;100.00
5988;BME280;3021;51.000;6.980;2023-07-29T04:03:44;68444.22;;;19.17;100.00
5988;BME280;3021;51.000;6.980;2023-07-29T04:06:11;68439.69;;;19.16;100.00
5988;BME280;3021;51.000;6.980;2023-07-29T04:08:36;68437.94;;;19.14;100.00
5988;BME280;3021;51.000;6.980;2023-07-29T04:11:01;68437.38;;;19.14;100.00
5988;BME280;3021;51.000;6.980;2023-07-29T04:13:27;68432.72;;;19.10;100.00
5988;BME280;3021;51.000;6.980;2023-07-29T04:15:52;68438.53;;;19.15;100.00
5988;BME280;3021;51.000;6.980;2023-07-29T04:18:17;68429.81;;;19.07;100.00
5988;BME280;3021;51.000;6.980;2023-07-29T04:20:43;68430.41;;;19.08;100.00
5988;BME280;3021;51.000;6.980;2023-07-29T04:23:08;68427.50;;;19.05;100.00
5988;BME280;3021;51.000;6.980;2023-07-29T04:25:34;68418.75;;;18.97;100.00
5988;BME280;3021;51.000;6.980;2023-07-29T04:27:59;68415.25;;;18.94;100.00
5988;BME280;3021;51.000;6.980;2023-07-29T04:30:24;68413.53;;;18.93;100.00
5988;BME280;3021;51.000;6.980;2023-07-29T04:32:49;68415.72;;;18.92;100.00
5988;BME280;3021;51.000;6.980;2023-07-29T04:35:15;68414.69;;;18.94;100.00
5988;BME280;3021;51.000;6.980;2023-07-29T04:37:40;68418.63;;;18.95;100.00
5988;BME280;3021;51.000;6.980;2023-07-29T04:40:06;68420.81;;;18.94;100.00
5988;BME280;3021;51.000;6.980;2023-07-29T04:42:32;68419.22;;;18.95;100.00
5988;BME280;3021;51.000;6.980;2023-07-29T04:44:57;68417.47;;;18.94;100.00
5988;BME280;3021;51.000;6.980;2023-07-29T04:47:23;68411.19;;;18.91;100.00
5988;BME280;3021;51.000;6.980;2023-07-29T04:49:48;68404.34;;;18.87;100.00
5988;BME280;3021;51.000;6.980;2023-07-29T04:52:14;68413.38;;;18.90;100.00
5988;BME280;3021;51.000;6.980;2023-07-29T04:54:40;68412.25;;;18.89;100.00
5988;BME280;3021;51.000;6.980;2023-07-29T04:57:06;68409.00;;;18.91;100.00
5988;BME280;3021;51.000;6.980;2023-07-29T04:59:31;68423.41;;;19.02;100.00
5988;BME280;3021;51.000;6.980;2023-07-29T05:01:56;68426.31;;;19.04;100.00
5988;BME280;3021;51.000;6.980;2023-07-29T05:04:22;68433.19;;;19.08;100.00
5988;BME280;3021;51.000;6.980;2023-07-29T05:06:48;68433.28;;;19.10;100.00
5988;BME280;3021;51.000;6.980;2023-07-29T05:09:17;68441.44;;;19.17;100.00
5988;BME280;3021;51.000;6.980;2023-07-29T05:11:44;68447.72;;;19.21;100.00
5988;BME280;3021;51.000;6.980;2023-07-29T05:14:16;68443.78;;;19.20;100.00
5988;BME280;3021;51.000;6.980;2023-07-29T05:16:42;68438.66;;;19.17;100.00
5988;BME280;3021;51.000;6.980;2023-07-29T05:19:08;68444.34;;;19.20;100.00
5988;BME280;3021;51.000;6.980;2023-07-29T05:21:34;68451.34;;;19.26;100.00
5988;BME280;3021;51.000;6.980;2023-07-29T05:23:59;68460.66;;;19.34;100.00
5988;BME280;3021;51.000;6.980;2023-07-29T05:26:24;68449.59;;;19.25;100.00
5988;BME280;3021;51.000;6.980;2023-07-29T05:28:50;68468.06;;;19.39;100.00
5988;BME280;3021;51.000;6.980;2023-07-29T05:31:15;68472.28;;;19.45;100.00
5988;BME280;3021;51.000;6.980;2023-07-29T05:33:40;68478.56;;;19.48;100.00
5988;BME280;3021;51.000;6.980;2023-07-29T05:36:06;68479.72;;;19.49;100.00
5988;BME280;3021;51.000;6.980;2023-07-29T05:38:31;68470.09;;;19.45;100.00
5988;BME280;3021;51.000;6.980;2023-07-29T05:40:57;68464.72;;;19.38;100.00
5988;BME280;3021;51.000;6.980;2023-07-29T05:43:24;68459.50;;;19.33;100.00
5988;BME280;3021;51.000;6.980;2023-07-29T05:45:49;68447.84;;;19.23;100.00
5988;BME280;3021;51.000;6.980;2023-07-29T05:48:16;68439.69;;;19.16;100.00
5988;BME280;3021;51.000;6.980;2023-07-29T05:50:41;68445.38;;;19.19;100.00
5988;BME280;3021;51.000;6.980;2023-07-29T05:53:07;68438.53;;;19.15;100.00
5988;BME280;3021;51.000;6.980;2023-07-29T05:55:32;68440.88;;;19.17;100.00
5988;BME280;3021;51.000;6.980;2023-07-29T05:57:57;68450.31;;;19.28;100.00
5988;BME280;3021;51.000;6.980;2023-07-29T06:00:23;68482.06;;;19.51;100.00
5988;BME280;3021;51.000;6.980;2023-07-29T06:02:48;68514.81;;;19.82;100.00
5988;BME280;3021;51.000;6.980;2023-07-29T06:05:13;68524.69;;;19.91;100.00
5988;BME280;3021;51.000;6.980;2023-07-29T06:07:39;68537.38;;;20.00;100.00
5988;BME280;3021;51.000;6.980;2023-07-29T06:10:09;68539.81;;;20.05;100.00
5988;BME280;3021;51.000;6.980;2023-07-29T06:12:37;68542.59;;;20.05;100.00
5988;BME280;3021;51.000;6.980;2023-07-29T06:15:02;68543.34;;;20.08;100.00
5988;BME280;3021;51.000;6.980;2023-07-29T06:17:28;68542.03;;;20.04;100.00
5988;BME280;3021;51.000;6.980;2023-07-29T06:19:53;68520.59;;;19.88;100.00
5988;BME280;3021;51.000;6.980;2023-07-29T06:22:18;68532.72;;;19.96;100.00
5988;BME280;3021;51.000;6.980;2023-07-29T06:24:43;68522.94;;;19.90;100.00
5988;BME280;3021;51.000;6.980;2023-07-29T06:27:09;68532.72;;;19.96;100.00
5988;BME280;3021;51.000;6.980;2023-07-29T06:29:34;68522.94;;;19.90;100.00
5988;BME280;3021;51.000;6.980;2023-07-29T06:31:59;68514.81;;;19.82;100.00
5988;BME280;3021;51.000;6.980;2023-07-29T06:34:25;68518.28;;;19.85;100.00
5988;BME280;3021;51.000;6.980;2023-07-29T06:36:50;68517.25;;;19.87;100.00
5988;BME280;3021;51.000;6.980;2023-07-29T06:39:16;68516.69;;;19.87;100.00
5988;BME280;3021;51.000;6.980;2023-07-29T06:41:41;68519.47;;;19.87;100.00
5988;BME280;3021;51.000;6.980;2023-07-29T06:44:06;68525.88;;;19.92;100.00
5988;BME280;3021;51.000;6.980;2023-07-29T06:46:32;68539.81;;;20.05;100.00
5988;BME280;3021;51.000;6.980;2023-07-29T06:48:57;68544.94;;;20.07;100.00
5988;BME280;3021;51.000;6.980;2023-07-29T06:51:23;68538.53;;;20.01;100.00
5988;BME280;3021;51.000;6.980;2023-07-29T06:53:48;68531.69;;;19.97;100.00
5988;BME280;3021;51.000;6.980;2023-07-29T06:56:13;68531.09;;;19.97;100.00
5988;BME280;3021;51.000;6.980;2023-07-29T06:58:39;68550.31;;;20.14;100.00
5988;BME280;3021;51.000;6.980;2023-07-29T07:01:04;68577.09;;;20.37;100.00
5988;BME280;3021;51.000;6.980;2023-07-29T07:03:29;68558.47;;;20.21;100.00
5988;BME280;3021;51.000;6.980;2023-07-29T07:05:54;68617.91;;;20.74;100.00
5988;BME280;3021;51.000;6.980;2023-07-29T07:08:20;68669.28;;;21.21;100.00
5988;BME280;3021;51.000;6.980;2023-07-29T07:10:47;68736.09;;;21.75;100.00
5988;BME280;3021;51.000;6.980;2023-07-29T07:13:12;68771.19;;;22.09;100.00
5988;BME280;3021;51.000;6.980;2023-07-29T07:15:38;68796.53;;;22.36;100.00
5988;BME280;3021;51.000;6.980;2023-07-29T07:18:03;68801.78;;;22.41;100.00
5988;BME280;3021;51.000;6.980;2023-07-29T07:20:29;68827.91;;;22.61;100.00
5988;BME280;3021;51.000;6.980;2023-07-29T07:22:54;68857.66;;;22.88;100.00
5988;BME280;3021;51.000;6.980;2023-07-29T07:25:20;68869.78;;;22.96;100.00
5988;BME280;3021;51.000;6.980;2023-07-29T07:27:45;68834.78;;;22.65;100.00
5988;BME280;3021;51.000;6.980;2023-07-29T07:30:11;68789.97;;;22.28;100.00
5988;BME280;3021;51.000;6.980;2023-07-29T07:32:36;68752.66;;;21.95;100.00
5988;BME280;3021;51.000;6.980;2023-07-29T07:35:02;68738.09;;;21.82;100.00
5988;BME280;3021;51.000;6.980;2023-07-29T07:37:27;68771.91;;;22.12;100.00
5988;BME280;3021;51.000;6.980;2023-07-29T07:39:53;68820.78;;;22.53;100.00
5988;BME280;3021;51.000;6.980;2023-07-29T07:42:18;68891.50;;;23.18;100.00
5988;BME280;3021;51.000;6.980;2023-07-29T07:44:43;68942.75;;;23.60;100.00
5988;BME280;3021;51.000;6.980;2023-07-29T07:47:09;69002.91;;;24.13;100.00
5988;BME280;3021;51.000;6.980;2023-07-29T07:49:34;68986.56;;;23.99;100.00
5988;BME280;3021;51.000;6.980;2023-07-29T07:51:59;68910.06;;;23.32;100.00
5988;BME280;3021;51.000;6.980;2023-07-29T07:54:24;68830.69;;;22.61;100.00
5988;BME280;3021;51.000;6.980;2023-07-29T07:56:50;68798.03;;;22.33;100.00
5988;BME280;3021;51.000;6.980;2023-07-29T07:59:15;68786.50;;;22.25;100.00
5988;BME280;3021;51.000;6.980;2023-07-29T08:01:40;68842.50;;;22.74;100.00
5988;BME280;3021;51.000;6.980;2023-07-29T08:04:06;68912.53;;;23.36;100.00
5988;BME280;3021;51.000;6.980;2023-07-29T08:06:32;68977.34;;;23.93;100.00
5988;BME280;3021;51.000;6.980;2023-07-29T08:08:57;69049.75;;;24.57;100.00
5988;BME280;3021;51.000;6.980;2023-07-29T08:11:23;69115.81;;;25.15;100.00
5988;BME280;3021;51.000;6.980;2023-07-29T08:13:49;69136.75;;;25.31;100.00
5988;BME280;3021;51.000;6.980;2023-07-29T08:16:14;69123.28;;;25.19;100.00
5988;BME280;3021;51.000;6.980;2023-07-29T08:18:40;69077.13;;;24.79;100.00
5988;BME280;3021;51.000;6.980;2023-07-29T08:21:05;69088.34;;;24.91;100.00
5988;BME280;3021;51.000;6.980;2023-07-29T08:23:33;69126.91;;;25.25;100.00
5988;BME280;3021;51.000;6.980;2023-07-29T08:26:02;69192.50;;;25.85;100.00
5988;BME280;3021;51.000;6.980;2023-07-29T08:28:31;69246.69;;;26.28;100.00
5988;BME280;3021;51.000;6.980;2023-07-29T08:30:56;69262.47;;;26.42;100.00
5988;BME280;3021;51.000;6.980;2023-07-29T08:33:22;69240.38;;;26.25;100.00
5988;BME280;3021;51.000;6.980;2023-07-29T08:35:47;69302.41;;;26.80;100.00
5988;BME280;3021;51.000;6.980;2023-07-29T08:38:13;69405.53;;;27.73;100.00
5988;BME280;3021;51.000;6.980;2023-07-29T08:40:44;69576.47;;;29.21;100.00
5988;BME280;3021;51.000;6.980;2023-07-29T08:43:11;69553.03;;;29.00;100.00
5988;BME280;3021;51.000;6.980;2023-07-29T08:45:38;69427.09;;;27.89;100.00
5988;BME280;3021;51.000;6.980;2023-07-29T08:48:10;69322.16;;;26.95;100.00
5988;BME280;3021;51.000;6.980;2023-07-29T08:50:36;69231.59;;;26.17;100.00
5988;BME280;3021;51.000;6.980;2023-07-29T08:53:05;69151.94;;;25.45;100.00
5988;BME280;3021;51.000;6.980;2023-07-29T08:55:31;69091.84;;;24.94;100.00
5988;BME280;3021;51.000;6.980;2023-07-29T08:57:58;69063.13;;;24.66;100.00
5988;BME280;3021;51.000;6.980;2023-07-29T09:00:25;69049.19;;;24.57;100.00
5988;BME280;3021;51.000;6.980;2023-07-29T09:02:51;69040.88;;;24.47;100.00
5988;BME280;3021;51.000;6.980;2023-07-29T09:05:16;69028.63;;;24.36;100.00
5988;BME280;3021;51.000;6.980;2023-07-29T09:07:42;68991.84;;;24.04;100.00
5988;BME280;3021;51.000;6.980;2023-07-29T09:10:09;68983.06;;;23.96;100.00
5988;BME280;3021;51.000;6.980;2023-07-29T09:12:36;68968.00;;;23.85;100.00
5988;BME280;3021;51.000;6.980;2023-07-29T09:15:01;68957.34;;;23.73;100.00
5988;BME280;3021;51.000;6.980;2023-07-29T09:17:26;68943.94;;;23.61;100.00
5988;BME280;3021;51.000;6.980;2023-07-29T09:19:55;68928.16;;;23.47;100.00
5988;BME280;3021;51.000;6.980;2023-07-29T09:22:21;68925.25;;;23.45;100.00
5988;BME280;3021;51.000;6.980;2023-07-29T09:24:47;68910.66;;;23.32;100.00
5988;BME280;3021;51.000;6.980;2023-07-29T09:27:28;68949.19;;;23.66;100.00
5988;BME280;3021;51.000;6.980;2023-07-29T09:29:57;68981.91;;;23.95;100.00
5988;BME280;3021;51.000;6.980;2023-07-29T09:32:24;68988.31;;;24.01;100.00
5988;BME280;3021;51.000;6.980;2023-07-29T09:34:50;68990.09;;;24.02;100.00
5988;BME280;3021;51.000;6.980;2023-07-29T09:37:22;69037.38;;;24.44;100.00
5988;BME280;3021;51.000;6.980;2023-07-29T09:39:48;69074.31;;;24.79;100.00
5988;BME280;3021;51.000;6.980;2023-07-29T09:42:20;69098.16;;;24.97;100.00
5988;BME280;3021;51.000;6.980;2023-07-29T09:44:48;69103.88;;;25.00;100.00
5988;BME280;3021;51.000;6.980;2023-07-29T09:47:24;69094.09;;;24.94;100.00
5988;BME280;3021;51.000;6.980;2023-07-29T09:49:53;69093.47;;;24.93;100.00
5988;BME280;3021;51.000;6.980;2023-07-29T09:52:22;69085.41;;;24.89;100.00
5988;BME280;3021;51.000;6.980;2023-07-29T09:54:48;69106.34;;;25.05;100.00
5988;BME280;3021;51.000;6.980;2023-07-29T09:57:14;69080.06;;;24.81;100.00
5988;BME280;3021;51.000;6.980;2023-07-29T09:59:40;69126.22;;;25.22;100.00
5988;BME280;3021;51.000;6.980;2023-07-29T10:02:13;69181.88;;;25.74;100.00
5988;BME280;3021;51.000;6.980;2023-07-29T10:04:41;69200.00;;;25.90;100.00
5988;BME280;3021;51.000;6.980;2023-07-29T10:07:07;69197.53;;;25.85;100.00
5988;BME280;3021;51.000;6.980;2023-07-29T10:09:34;69367.94;;;27.37;100.00
5988;BME280;3021;51.000;6.980;2023-07-29T10:11:59;69664.34;;;29.95;100.00
5988;BME280;3021;51.000;6.980;2023-07-29T10:14:27;69611.78;;;29.54;100.00
5988;BME280;3021;51.000;6.980;2023-07-29T10:16:53;69522.00;;;28.73;100.00
5988;BME280;3021;51.000;6.980;2023-07-29T10:19:20;69592.31;;;29.35;100.00
5988;BME280;3021;51.000;6.980;2023-07-29T10:21:47;69506.03;;;28.56;100.00
5988;BME280;3021;51.000;6.980;2023-07-29T10:24:15;69352.03;;;27.21;100.00
5988;BME280;3021;51.000;6.980;2023-07-29T10:26:46;69140.84;;;25.35;100.00
5988;BME280;3021;51.000;6.980;2023-07-29T10:29:13;69120.94;;;25.17;100.00
5988;BME280;3021;51.000;6.980;2023-07-29T10:31:43;69094.78;;;24.97;100.00
5988;BME280;3021;51.000;6.980;2023-07-29T10:34:08;69061.47;;;24.67;100.00
5988;BME280;3021;51.000;6.980;2023-07-29T10:36:35;69009.47;;;24.22;100.00
5988;BME280;3021;51.000;6.980;2023-07-29T10:39:00;68994.75;;;24.06;100.00
5988;BME280;3021;51.000;6.980;2023-07-29T10:41:56;69005.72;;;24.13;100.00
5988;BME280;3021;51.000;6.980;2023-07-29T10:47:13;68949.78;;;23.67;100.00
5988;BME280;3021;51.000;6.980;2023-07-29T10:49:42;68938.81;;;23.59;100.00
5988;BME280;3021;51.000;6.980;2023-07-29T10:52:08;68927.59;;;23.47;100.00
5988;BME280;3021;51.000;6.980;2023-07-29T10:54:53;68899.47;;;23.20;100.00
5988;BME280;3021;51.000;6.980;2023-07-29T10:59:58;68917.06;;;23.38;100.00
5988;BME280;3021;51.000;6.980;2023-07-29T11:02:32;68906.56;;;23.28;100.00
5988;BME280;3021;51.000;6.980;2023-07-29T11:04:59;68921.75;;;23.42;100.00
5988;BME280;3021;51.000;6.980;2023-07-29T11:07:26;68973.16;;;23.87;100.00
5988;BME280;3021;51.000;6.980;2023-07-29T11:10:02;69029.91;;;24.40;100.00
5988;BME280;3021;51.000;6.980;2023-07-29T11:15:23;69112.88;;;25.13;100.00
5988;BME280;3021;51.000;6.980;2023-07-29T11:17:50;69080.75;;;24.84;100.00
5988;BME280;3021;51.000;6.980;2023-07-29T11:20:17;69051.41;;;24.56;100.00
5988;BME280;3021;51.000;6.980;2023-07-29T11:22:43;69094.09;;;24.94;100.00
5988;BME280;3021;51.000;6.980;2023-07-29T11:25:11;69165.97;;;25.57;100.00
5988;BME280;3021;51.000;6.980;2023-07-29T11:27:37;69139.19;;;25.36;100.00
5988;BME280;3021;51.000;6.980;2023-07-29T11:30:10;69116.28;;;25.13;100.00
5988;BME280;3021;51.000;6.980;2023-07-29T11:32:39;68980.75;;;23.94;100.00
5988;BME280;3021;51.000;6.980;2023-07-29T11:35:06;68989.63;;;24.04;100.00
5988;BME280;3021;51.000;6.980;2023-07-29T11:37:34;69047.88;;;24.53;100.00
5988;BME280;3021;51.000;6.980;2023-07-29T11:40:00;69111.00;;;25.09;100.00
5988;BME280;3021;51.000;6.980;2023-07-29T11:42:26;69146.69;;;25.40;100.00
5988;BME280;3021;51.000;6.980;2023-07-29T11:44:51;69167.84;;;25.61;100.00
5988;BME280;3021;51.000;6.980;2023-07-29T11:47:17;69167.16;;;25.58;100.00
5988;BME280;3021;51.000;6.980;2023-07-29T11:49:42;69185.38;;;25.77;100.00
5988;BME280;3021;51.000;6.980;2023-07-29T11:52:09;69249.03;;;26.30;100.00
5988;BME280;3021;51.000;6.980;2023-07-29T11:54:35;69240.84;;;26.23;100.00
5988;BME280;3021;51.000;6.980;2023-07-29T11:57:04;69126.91;;;25.25;100.00
5988;BME280;3021;51.000;6.980;2023-07-29T11:59:32;69176.03;;;25.68;100.00
5988;BME280;3021;51.000;6.980;2023-07-29T12:01:59;69221.66;;;26.09;100.00
5988;BME280;3021;51.000;6.980;2023-07-29T12:04:25;69231.72;;;26.20;100.00
5988;BME280;3021;51.000;6.980;2023-07-29T12:06:51;69287.75;;;26.67;100.00
5988;BME280;3021;51.000;6.980;2023-07-29T12:09:16;69223.41;;;26.10;100.00
5988;BME280;3021;51.000;6.980;2023-07-29T12:11:43;69243.19;;;26.25;100.00
5988;BME280;3021;51.000;6.980;2023-07-29T12:14:09;69204.69;;;25.94;100.00
5988;BME280;3021;51.000;6.980;2023-07-29T12:16:42;69216.75;;;25.99;100.00
5988;BME280;3021;51.000;6.980;2023-07-29T12:19:08;69195.22;;;25.83;100.00
5988;BME280;3021;51.000;6.980;2023-07-29T12:21:33;69173.59;;;25.64;100.00
5988;BME280;3021;51.000;6.980;2023-07-29T12:24:00;69159.44;;;25.49;100.00
5988;BME280;3021;51.000;6.980;2023-07-29T12:26:28;69185.84;;;25.75;100.00
5988;BME280;3021;51.000;6.980;2023-07-29T12:28:54;69189.34;;;25.78;100.00
5988;BME280;3021;51.000;6.980;2023-07-29T12:31:19;69181.16;;;25.70;100.00
5988;BME280;3021;51.000;6.980;2023-07-29T12:33:44;69087.16;;;24.90;100.00
5988;BME280;3021;51.000;6.980;2023-07-29T12:36:10;69052.00;;;24.57;100.00
5988;BME280;3021;51.000;6.980;2023-07-29T12:38:35;69084.16;;;24.85;100.00
5988;BME280;3021;51.000;6.980;2023-07-29T12:41:01;69078.41;;;24.82;100.00
5988;BME280;3021;51.000;6.980;2023-07-29T12:43:26;69032.72;;;24.40;100.00
5988;BME280;3021;51.000;6.980;2023-07-29T12:45:52;69030.50;;;24.40;100.00
5988;BME280;3021;51.000;6.980;2023-07-29T12:48:17;69041.59;;;24.50;100.00
5988;BME280;3021;51.000;6.980;2023-07-29T12:50:42;69051.41;;;24.56;100.00
5988;BME280;3021;51.000;6.980;2023-07-29T12:53:09;69078.88;;;24.80;100.00
5988;BME280;3021;51.000;6.980;2023-07-29T12:55:37;69123.88;;;25.20;100.00
5988;BME280;3021;51.000;6.980;2023-07-29T12:58:03;69165.41;;;25.57;100.00
5988;BME280;3021;51.000;6.980;2023-07-29T13:00:29;69189.47;;;25.80;100.00
5988;BME280;3021;51.000;6.980;2023-07-29T13:02:54;69218.03;;;26.03;100.00
5988;BME280;3021;51.000;6.980;2023-07-29T13:05:20;69174.16;;;25.64;100.00
5988;BME280;3021;51.000;6.980;2023-07-29T13:07:45;69142.72;;;25.39;100.00
5988;BME280;3021;51.000;6.980;2023-07-29T13:10:11;69194.16;;;25.84;100.00
5988;BME280;3021;51.000;6.980;2023-07-29T13:12:37;69230.91;;;26.14;100.00
5988;BME280;3021;51.000;6.980;2023-07-29T13:15:02;69263.06;;;26.43;100.00
5988;BME280;3021;51.000;6.980;2023-07-29T13:17:28;69268.81;;;26.45;100.00